createdAt,value
2022-08-02T16:01:56.047Z,30.00
2022-08-02T16:03:27.999Z,28.40
2022-08-02T16:04:59.683Z,36.00
2022-08-02T16:06:31.498Z,34.80
2022-08-02T16:08:03.418Z,34.80
2022-08-02T16:09:35.141Z,35.00
2022-08-02T16:11:06.898Z,32.80
2022-08-02T16:12:38.803Z,32.00
2022-08-02T16:14:10.896Z,25.80
2022-08-02T16:15:42.689Z,26.00
2022-08-02T16:17:14.537Z,33.40
2022-08-02T16:19:46.655Z,36.20
2022-08-02T16:20:59.448Z,31.20
2022-08-02T16:22:31.416Z,31.60
2022-08-02T16:24:03.494Z,32.20
2022-08-02T16:25:40.099Z,28.40
2022-08-02T16:27:14.847Z,33.00
2022-08-02T16:28:46.802Z,31.40
2022-08-02T16:30:18.516Z,30.40
2022-08-02T16:31:50.300Z,32.40
2022-08-02T16:33:22.119Z,32.00
2022-08-02T16:35:07.902Z,33.00
2022-08-02T16:36:40.844Z,31.20
2022-08-02T16:38:12.650Z,32.80
2022-08-02T16:39:44.436Z,32.40
2022-08-02T16:41:18.820Z,23.40
2022-08-02T16:42:51.248Z,35.00
2022-08-02T16:44:29.483Z,36.80
2022-08-02T16:46:15.295Z,34.20
2022-08-02T16:47:57.414Z,32.00
2022-08-02T16:50:07.292Z,35.60
2022-08-02T16:51:23.074Z,32.40
2022-08-02T16:52:55.987Z,31.20
2022-08-02T16:54:27.734Z,32.00
2022-08-02T16:56:00.774Z,31.40
2022-08-02T16:57:43.323Z,31.80
2022-08-02T16:59:17.298Z,27.20
2022-08-02T17:00:49.190Z,36.80
2022-08-02T17:02:21.759Z,36.60
2022-08-02T17:03:58.134Z,29.00
2022-08-02T17:05:37.829Z,29.80
2022-08-02T17:08:07.646Z,35.20
2022-08-02T17:10:03.530Z,31.00
2022-08-02T17:11:09.910Z,28.40
2022-08-02T17:12:41.726Z,29.80
2022-08-02T17:14:13.713Z,30.40
2022-08-02T17:16:01.026Z,34.80
2022-08-02T17:17:41.849Z,30.40
2022-08-02T17:19:15.006Z,34.40
2022-08-02T17:20:47.109Z,32.60
2022-08-02T17:22:18.880Z,36.40
2022-08-02T17:24:05.106Z,37.80
2022-08-02T17:25:41.761Z,27.60
2022-08-02T17:27:15.308Z,29.80
2022-08-02T17:29:16.205Z,26.00
2022-08-02T17:30:39.947Z,32.80
2022-08-02T17:32:11.828Z,34.00
2022-08-02T17:33:43.817Z,36.20
2022-08-02T17:35:16.870Z,30.20
2022-08-02T17:36:49.002Z,36.60
2022-08-02T17:38:26.024Z,33.60
2022-08-02T17:39:59.381Z,31.20
2022-08-02T17:41:37.809Z,35.00
2022-08-02T17:43:21.622Z,31.80
2022-08-02T17:44:53.835Z,31.80
2022-08-02T17:46:25.628Z,31.40
2022-08-02T17:48:04.709Z,32.40
2022-08-02T17:49:42.666Z,36.60
2022-08-02T17:52:15.086Z,41.00
2022-08-02T17:53:07.804Z,38.00
2022-08-02T17:54:39.781Z,35.20
2022-08-02T17:56:11.564Z,31.40
2022-08-02T17:57:55.470Z,35.40
2022-08-02T18:01:23.979Z,32.00
2022-08-02T18:02:56.248Z,33.20
2022-08-02T18:04:28.484Z,39.20
2022-08-02T18:06:00.360Z,37.00
2022-08-02T18:07:49.086Z,28.80
2022-08-02T18:09:23.307Z,36.40
2022-08-02T18:10:55.947Z,33.20
2022-08-02T18:12:27.783Z,34.00
2022-08-02T18:13:59.858Z,34.40
2022-08-02T18:15:32.614Z,33.20
2022-08-02T18:17:06.631Z,32.00
2022-08-02T18:18:38.710Z,37.60
2022-08-02T18:20:17.174Z,39.20
2022-08-02T18:21:49.361Z,31.80
2022-08-02T18:23:23.178Z,36.60
2022-08-02T18:24:55.531Z,39.40
2022-08-02T18:26:28.590Z,40.60
2022-08-02T18:28:00.600Z,44.80
2022-08-02T18:29:38.596Z,44.60
2022-08-02T18:31:22.581Z,35.60
2022-08-02T18:33:56.814Z,35.00
2022-08-02T18:34:47.973Z,40.20
2022-08-02T18:36:24.942Z,31.80
2022-08-02T18:38:00.945Z,33.80
2022-08-02T18:39:38.515Z,34.00
2022-08-02T18:41:12.815Z,34.40
2022-08-02T18:42:44.988Z,37.60
2022-08-02T18:44:21.456Z,42.20
2022-08-02T18:46:07.436Z,34.40
2022-08-02T18:47:50.781Z,32.00
2022-08-02T18:49:25.504Z,32.20
2022-08-02T18:51:02.016Z,30.80
2022-08-02T18:52:35.406Z,41.60
2022-08-02T18:54:07.297Z,34.20
2022-08-02T18:56:00.308Z,36.80
2022-08-02T18:58:16.886Z,31.00
2022-08-02T18:59:22.805Z,32.60
2022-08-02T19:00:55.646Z,38.80
2022-08-02T19:02:27.923Z,34.20
2022-08-02T19:04:00.463Z,35.40
2022-08-02T19:05:51.813Z,35.20
2022-08-02T19:07:25.253Z,36.20
2022-08-02T19:09:17.426Z,39.00
2022-08-02T19:10:50.019Z,32.20
2022-08-02T19:12:28.219Z,37.60
2022-08-02T19:14:00.448Z,36.40
2022-08-02T19:15:34.190Z,35.40
2022-08-02T19:17:15.745Z,38.60
2022-08-02T19:18:58.006Z,36.00
2022-08-02T19:20:30.584Z,33.00
2022-08-02T19:22:18.267Z,39.00
2022-08-02T19:23:54.341Z,38.80
2022-08-02T19:25:27.957Z,42.20
2022-08-02T19:27:09.028Z,40.00
2022-08-02T19:28:46.256Z,38.40
2022-08-02T19:30:21.324Z,39.20
2022-08-02T19:34:05.978Z,39.60
2022-08-02T19:36:01.915Z,41.40
2022-08-02T19:37:38.549Z,33.60
2022-08-02T19:39:10.660Z,35.00
2022-08-02T19:40:49.027Z,38.80
2022-08-02T19:42:21.414Z,46.80
2022-08-02T19:44:23.386Z,40.40
2022-08-02T19:45:50.824Z,36.80
2022-08-02T19:47:23.308Z,37.40
2022-08-02T19:48:55.984Z,39.20
2022-08-02T19:50:28.411Z,39.40
2022-08-02T19:52:00.447Z,34.00
2022-08-02T19:53:47.110Z,43.60
2022-08-02T19:55:59.516Z,42.40
2022-08-02T19:57:17.087Z,46.60
2022-08-02T19:58:52.111Z,40.00
2022-08-02T20:00:24.175Z,46.80
2022-08-02T20:01:56.421Z,50.40
2022-08-02T20:03:50.892Z,47.00
2022-08-02T20:05:23.926Z,54.00
2022-08-02T20:07:00.152Z,57.40
2022-08-02T20:08:35.834Z,51.80
2022-08-02T20:10:11.309Z,54.60
2022-08-02T20:11:44.284Z,48.20
2022-08-02T20:13:16.117Z,47.80
2022-08-02T20:14:51.054Z,49.80
2022-08-02T20:16:27.946Z,48.00
2022-08-02T20:18:00.311Z,46.60
2022-08-02T20:19:32.621Z,46.40
2022-08-02T20:21:07.088Z,44.40
2022-08-02T20:23:32.647Z,44.00
2022-08-02T20:25:07.798Z,45.80
2022-08-02T20:28:34.044Z,45.40
2022-08-02T20:30:06.588Z,46.00
2022-08-02T20:31:38.457Z,44.60
2022-08-02T20:33:22.043Z,36.80
2022-08-02T20:34:54.429Z,47.80
2022-08-02T20:36:27.158Z,49.00
2022-08-02T20:38:04.894Z,46.80
2022-08-02T20:39:42.951Z,45.40
2022-08-02T20:41:21.516Z,43.80
2022-08-02T20:42:56.403Z,41.80
2022-08-02T20:44:31.295Z,41.40
2022-08-02T20:46:05.703Z,46.40
2022-08-02T20:47:39.709Z,47.00
2022-08-02T20:49:21.699Z,40.20
2022-08-02T20:50:57.003Z,50.20
2022-08-02T20:52:30.305Z,45.00
2022-08-02T20:54:02.631Z,45.00
2022-08-02T20:55:35.786Z,47.20
2022-08-02T20:57:08.316Z,41.00
2022-08-02T20:58:40.202Z,43.00
2022-08-02T21:00:12.570Z,47.00
2022-08-02T21:01:57.370Z,48.60
2022-08-02T21:03:40.084Z,42.60
2022-08-02T21:05:15.454Z,35.40
2022-08-02T21:06:50.425Z,41.40
2022-08-02T21:08:23.403Z,50.60
2022-08-02T21:09:56.090Z,32.60
2022-08-02T21:11:33.618Z,44.60
2022-08-02T21:13:18.905Z,46.60
2022-08-02T21:14:54.475Z,47.40
2022-08-02T21:16:26.201Z,42.60
2022-08-02T21:18:01.300Z,51.80
2022-08-02T21:19:44.326Z,45.60
2022-08-02T21:21:16.576Z,43.60
2022-08-02T21:22:48.392Z,45.40
2022-08-02T21:24:24.520Z,43.40
2022-08-02T21:25:57.979Z,49.40
2022-08-02T21:27:53.361Z,43.80
2022-08-02T21:29:21.761Z,44.80
2022-08-02T21:30:54.586Z,52.20
2022-08-02T21:32:26.431Z,46.20
2022-08-02T21:34:00.334Z,44.60
2022-08-02T21:35:32.506Z,48.00
2022-08-02T21:37:09.876Z,51.80
2022-08-02T21:38:42.152Z,48.20
2022-08-02T21:40:14.200Z,42.40
2022-08-02T21:41:47.348Z,47.40
2022-08-02T21:43:20.081Z,48.40
2022-08-02T21:45:17.464Z,45.60
2022-08-02T21:46:54.196Z,43.00
2022-08-02T21:48:26.134Z,48.00
2022-08-02T21:50:13.616Z,74.40
2022-08-02T21:51:49.762Z,98.00
2022-08-02T21:53:41.967Z,88.50
2022-08-02T21:55:14.830Z,67.80
2022-08-02T21:56:48.257Z,55.20
2022-08-02T21:58:20.468Z,57.80
2022-08-02T21:59:56.502Z,53.80
2022-08-02T22:01:28.543Z,57.60
2022-08-02T22:03:22.720Z,58.80
2022-08-02T22:04:54.236Z,55.40
2022-08-02T22:06:26.677Z,50.80
2022-08-02T22:07:59.257Z,55.60
2022-08-02T22:09:42.862Z,52.40
2022-08-02T22:11:17.375Z,47.20
2022-08-02T22:12:49.490Z,52.60
2022-08-02T22:14:23.476Z,55.20
2022-08-02T22:15:57.806Z,52.00
2022-08-02T22:17:51.036Z,50.20
2022-08-02T22:19:23.319Z,52.40
2022-08-02T22:20:56.227Z,44.80
2022-08-02T22:22:28.874Z,46.80
2022-08-02T22:24:01.153Z,53.20
2022-08-02T22:25:36.760Z,46.00
2022-08-02T22:27:09.541Z,48.20
2022-08-02T22:28:51.714Z,49.00
2022-08-02T22:30:24.992Z,48.20
2022-08-02T22:31:58.944Z,48.80
2022-08-02T22:34:01.204Z,49.40
2022-08-02T22:58:48.315Z,36.40
2022-08-02T22:58:50.426Z,39.20
2022-08-02T22:59:05.603Z,38.00
